createdAt,value
2022-11-25T00:02:15.310Z,6.15
2022-11-25T00:04:47.678Z,12.68
2022-11-25T00:07:20.065Z,5.32
2022-11-25T00:09:52.498Z,14.05
2022-11-25T00:12:24.865Z,5.68
2022-11-25T00:14:57.202Z,4.07
2022-11-25T00:17:30.234Z,36.90
2022-11-25T00:20:05.318Z,4.70
2022-11-25T00:22:37.750Z,2.85
2022-11-25T00:25:10.092Z,4.40
2022-11-25T00:27:42.424Z,4.15
2022-11-25T00:30:15.105Z,1.75
2022-11-25T00:32:48.155Z,2.10
2022-11-25T00:35:20.698Z,2.97
2022-11-25T00:37:53.047Z,4.07
2022-11-25T00:40:26.157Z,1.95
2022-11-25T00:43:16.712Z,0.82
2022-11-25T00:45:49.143Z,2.28
2022-11-25T00:48:22.234Z,2.00
2022-11-25T00:50:54.547Z,6.00
2022-11-25T00:53:26.912Z,3.00
2022-11-25T00:56:13.509Z,3.03
2022-11-25T00:58:45.934Z,11.07
2022-11-25T01:01:18.444Z,2.45
2022-11-25T01:03:52.640Z,2.35
2022-11-25T01:06:25.187Z,2.25
2022-11-25T01:08:59.668Z,3.65
2022-11-25T01:11:32.010Z,1.80
2022-11-25T01:14:04.598Z,6.07
2022-11-25T01:16:37.097Z,2.53
2022-11-25T01:19:11.889Z,2.10
2022-11-25T01:21:44.849Z,1.92
2022-11-25T01:24:17.898Z,3.45
2022-11-25T01:26:50.336Z,2.90
2022-11-25T01:29:23.505Z,5.80
2022-11-25T01:31:59.193Z,2.13
2022-11-25T01:34:34.032Z,2.53
2022-11-25T01:37:06.579Z,1.75
2022-11-25T01:39:39.130Z,1.42
2022-11-25T01:42:11.470Z,4.47
2022-11-25T01:44:43.822Z,2.15
2022-11-25T01:47:22.752Z,3.10
2022-11-25T01:50:02.157Z,3.03
2022-11-25T01:52:38.034Z,4.68
2022-11-25T01:55:15.261Z,2.08
2022-11-25T01:57:54.194Z,2.78
2022-11-25T02:00:26.605Z,1.63
2022-11-25T02:02:59.391Z,3.70
2022-11-25T02:05:41.926Z,2.03
2022-11-25T02:08:15.746Z,2.60
2022-11-25T02:10:48.461Z,2.78
2022-11-25T02:13:24.051Z,2.50
2022-11-25T02:15:56.686Z,0.95
2022-11-25T02:18:30.367Z,3.85
2022-11-25T02:21:03.561Z,1.85
2022-11-25T02:23:42.118Z,3.08
2022-11-25T02:26:15.991Z,2.63
2022-11-25T02:28:48.507Z,5.05
2022-11-25T02:31:22.293Z,3.72
2022-11-25T02:33:54.718Z,3.55
2022-11-25T02:36:27.162Z,1.77
2022-11-25T02:39:01.968Z,1.13
2022-11-25T02:41:42.896Z,2.83
2022-11-25T02:44:15.295Z,2.45
2022-11-25T02:46:47.942Z,4.88
2022-11-25T02:49:20.282Z,1.30
2022-11-25T02:51:52.613Z,1.92
2022-11-25T02:54:25.050Z,2.55
2022-11-25T02:56:58.098Z,1.05
2022-11-25T02:59:30.539Z,1.98
2022-11-25T03:02:03.992Z,2.10
2022-11-25T03:04:37.527Z,3.63
2022-11-25T03:07:10.357Z,5.78
2022-11-25T03:09:43.302Z,1.77
2022-11-25T03:12:21.324Z,1.42
2022-11-25T03:14:58.545Z,1.55
2022-11-25T03:17:30.928Z,3.75
2022-11-25T03:20:03.712Z,1.48
2022-11-25T03:22:37.302Z,1.98
2022-11-25T03:25:11.878Z,2.13
2022-11-25T03:27:45.074Z,1.42
2022-11-25T03:30:19.653Z,2.75
2022-11-25T03:32:53.737Z,0.77
2022-11-25T03:35:26.299Z,3.33
2022-11-25T03:37:58.918Z,2.42
2022-11-25T03:40:31.304Z,1.75
2022-11-25T03:43:05.111Z,4.25
2022-11-25T03:45:37.753Z,1.73
2022-11-25T03:48:12.766Z,2.03
2022-11-25T03:50:47.924Z,2.00
2022-11-25T03:53:20.261Z,1.88
2022-11-25T03:55:52.958Z,0.98
2022-11-25T03:58:28.604Z,3.72
2022-11-25T04:01:02.108Z,4.07
2022-11-25T04:03:35.185Z,2.05
2022-11-25T04:06:10.419Z,1.15
2022-11-25T04:08:44.238Z,23.92
2022-11-25T04:11:16.938Z,2.90
2022-11-25T04:13:53.144Z,2.17
2022-11-25T04:16:26.617Z,1.00
2022-11-25T04:19:00.291Z,0.98
2022-11-25T04:21:33.113Z,1.80
2022-11-25T04:24:07.214Z,2.05
2022-11-25T04:26:39.821Z,2.92
2022-11-25T04:29:12.871Z,1.23
2022-11-25T04:31:45.424Z,1.35
2022-11-25T04:34:17.769Z,0.63
2022-11-25T04:36:52.280Z,1.98
2022-11-25T04:39:24.961Z,1.88
2022-11-25T04:42:15.269Z,0.40
2022-11-25T04:45:07.341Z,2.28
2022-11-25T04:47:41.647Z,1.50
2022-11-25T04:50:16.509Z,2.00
2022-11-25T04:52:58.622Z,1.17
2022-11-25T04:55:31.360Z,1.70
2022-11-25T04:58:06.526Z,3.05
2022-11-25T05:00:41.099Z,2.90
2022-11-25T05:03:15.604Z,1.48
2022-11-25T05:05:48.058Z,1.52
2022-11-25T05:08:20.454Z,3.00
2022-11-25T05:10:53.014Z,1.52
2022-11-25T05:13:25.937Z,1.10
2022-11-25T05:15:59.731Z,1.67
2022-11-25T05:18:32.368Z,3.30
2022-11-25T05:21:06.814Z,2.35
2022-11-25T05:23:43.299Z,2.67
2022-11-25T05:26:15.813Z,2.13
2022-11-25T05:28:52.154Z,2.53
2022-11-25T05:31:25.242Z,1.35
2022-11-25T05:34:00.584Z,1.25
2022-11-25T05:36:33.023Z,1.02
2022-11-25T05:39:05.805Z,2.15
2022-11-25T05:42:01.672Z,1.10
2022-11-25T05:44:34.120Z,2.85
2022-11-25T05:47:08.582Z,4.10
2022-11-25T05:49:41.021Z,2.17
2022-11-25T05:52:13.466Z,1.60
2022-11-25T05:54:57.298Z,1.25
2022-11-25T05:57:31.377Z,1.65
2022-11-25T06:00:13.649Z,1.08
2022-11-25T06:02:52.180Z,2.38
2022-11-25T06:05:25.493Z,2.38
2022-11-25T06:07:58.021Z,1.55
2022-11-25T06:10:31.437Z,1.95
2022-11-25T06:13:03.846Z,0.45
2022-11-25T06:15:40.829Z,1.67
2022-11-25T06:18:16.452Z,0.70
2022-11-25T06:20:56.254Z,1.48
2022-11-25T06:26:05.262Z,1.90
2022-11-25T06:28:37.709Z,4.32
2022-11-25T06:31:12.194Z,2.08
2022-11-25T06:33:53.715Z,1.48
2022-11-25T06:36:26.162Z,0.98
2022-11-25T06:38:58.558Z,1.92
2022-11-25T06:41:30.959Z,1.23
2022-11-25T06:44:03.471Z,2.15
2022-11-25T06:46:35.924Z,3.00
2022-11-25T06:49:09.042Z,2.65
2022-11-25T06:51:41.451Z,2.03
2022-11-25T06:54:13.767Z,2.40
2022-11-25T06:56:50.869Z,2.78
2022-11-25T06:59:23.410Z,5.13
2022-11-25T07:01:55.979Z,5.63
2022-11-25T07:04:29.275Z,1.75
2022-11-25T07:07:01.572Z,1.10
2022-11-25T07:09:34.116Z,2.80
2022-11-25T07:12:07.611Z,6.97
2022-11-25T07:14:40.027Z,13.40
2022-11-25T07:17:12.613Z,12.63
2022-11-25T07:19:45.576Z,10.05
2022-11-25T07:22:17.957Z,2.33
2022-11-25T07:24:50.341Z,6.05
2022-11-25T07:27:22.720Z,5.00
2022-11-25T07:30:29.258Z,2.17
2022-11-25T07:32:47.431Z,2.75
2022-11-25T07:35:20.467Z,3.20
2022-11-25T07:37:52.849Z,3.58
2022-11-25T07:40:25.193Z,3.15
2022-11-25T07:42:57.552Z,3.70
2022-11-25T07:45:29.904Z,2.78
2022-11-25T07:48:12.772Z,3.35
2022-11-25T07:50:46.264Z,6.20
2022-11-25T07:53:18.654Z,6.68
2022-11-25T07:55:51.096Z,8.07
2022-11-25T07:58:23.499Z,5.85
2022-11-25T08:00:55.824Z,5.47
2022-11-25T08:03:28.169Z,9.30
2022-11-25T08:06:01.624Z,4.75
2022-11-25T08:08:34.283Z,2.80
2022-11-25T08:11:07.170Z,1.80
2022-11-25T08:13:39.899Z,2.20
2022-11-25T08:16:14.129Z,1.33
2022-11-25T08:18:46.880Z,1.92
2022-11-25T08:21:20.826Z,2.42
2022-11-25T08:23:53.673Z,3.53
2022-11-25T08:26:29.564Z,6.70
2022-11-25T08:29:03.345Z,2.35
2022-11-25T08:31:37.857Z,4.63
2022-11-25T08:34:17.356Z,3.45
2022-11-25T08:36:51.718Z,4.45
2022-11-25T08:42:16.414Z,4.68
2022-11-25T08:44:52.870Z,2.45
2022-11-25T08:47:25.644Z,2.20
2022-11-25T08:49:58.463Z,4.00
2022-11-25T08:52:31.532Z,3.97
2022-11-25T08:55:04.680Z,2.53
2022-11-25T08:57:37.392Z,3.65
2022-11-25T09:00:11.087Z,2.88
2022-11-25T09:02:43.762Z,3.55
2022-11-25T09:05:17.066Z,5.60
2022-11-25T09:07:50.223Z,2.35
2022-11-25T09:10:22.713Z,3.95
2022-11-25T09:12:55.096Z,2.42
2022-11-25T09:15:27.447Z,1.60
2022-11-25T09:18:00.681Z,2.70
2022-11-25T09:20:33.727Z,3.95
2022-11-25T09:23:08.357Z,2.60
2022-11-25T09:25:40.745Z,3.75
2022-11-25T09:28:13.182Z,2.80
2022-11-25T09:30:45.581Z,2.78
2022-11-25T09:33:18.942Z,1.75
2022-11-25T09:35:51.359Z,2.63
2022-11-25T09:38:24.369Z,3.17
2022-11-25T09:41:01.280Z,3.00
2022-11-25T09:44:04.094Z,3.72
2022-11-25T09:46:53.974Z,4.80
2022-11-25T09:49:40.608Z,2.08
2022-11-25T09:52:19.150Z,2.80
2022-11-25T09:55:02.313Z,8.25
2022-11-25T09:57:51.964Z,4.43
2022-11-25T10:00:36.623Z,3.35
2022-11-25T10:03:16.919Z,6.25
2022-11-25T10:05:58.670Z,5.35
2022-11-25T10:08:35.617Z,2.10
2022-11-25T10:11:21.163Z,1.77
2022-11-25T10:14:00.395Z,1.83
2022-11-25T10:16:38.795Z,2.72
2022-11-25T10:19:20.848Z,2.75
2022-11-25T10:21:53.266Z,2.55
2022-11-25T10:24:25.860Z,3.08
2022-11-25T10:27:05.317Z,1.83
2022-11-25T10:29:38.252Z,1.70
2022-11-25T10:32:21.894Z,4.50
2022-11-25T10:34:59.081Z,1.85
2022-11-25T10:37:37.744Z,1.30
2022-11-25T10:40:15.199Z,4.47
2022-11-25T10:42:48.326Z,6.13
2022-11-25T10:45:28.501Z,1.67
2022-11-25T10:48:18.123Z,1.60
2022-11-25T10:51:05.278Z,3.75
2022-11-25T10:53:38.166Z,2.38
2022-11-25T10:56:16.856Z,2.88
2022-11-25T10:58:50.028Z,2.08
2022-11-25T11:01:24.939Z,1.77
2022-11-25T11:04:05.544Z,3.50
2022-11-25T11:06:39.970Z,3.30
2022-11-25T11:09:32.419Z,3.67
2022-11-25T11:12:15.590Z,5.05
2022-11-25T11:14:49.276Z,3.38
2022-11-25T11:17:34.727Z,2.20
2022-11-25T11:20:21.859Z,2.33
2022-11-25T11:23:07.070Z,2.35
2022-11-25T11:25:43.186Z,3.03
2022-11-25T11:28:27.362Z,3.65
2022-11-25T11:31:02.952Z,1.92
2022-11-25T11:33:41.097Z,2.08
2022-11-25T11:36:30.360Z,3.70
2022-11-25T11:39:20.929Z,1.65
2022-11-25T11:42:01.079Z,2.92
2022-11-25T11:44:39.957Z,3.38
2022-11-25T11:47:24.618Z,3.80
2022-11-25T11:50:08.732Z,1.02
2022-11-25T11:52:54.655Z,2.65
2022-11-25T11:56:18.966Z,2.90
2022-11-25T11:59:01.493Z,4.20
2022-11-25T12:01:48.357Z,1.90
2022-11-25T12:04:27.739Z,2.17
2022-11-25T12:07:05.824Z,3.90
2022-11-25T12:09:47.643Z,2.80
2022-11-25T12:12:26.816Z,6.50
2022-11-25T12:15:05.913Z,2.65
2022-11-25T12:17:43.790Z,1.63
2022-11-25T12:20:22.808Z,2.63
2022-11-25T12:23:01.088Z,2.53
2022-11-25T12:25:36.907Z,3.75
2022-11-25T12:28:15.419Z,6.40
2022-11-25T12:31:10.896Z,3.40
2022-11-25T12:33:54.349Z,2.92
2022-11-25T12:36:32.786Z,1.85
2022-11-25T12:39:18.358Z,3.67
2022-11-25T12:41:53.937Z,2.35
2022-11-25T12:44:31.810Z,2.00
2022-11-25T12:47:10.770Z,3.40
2022-11-25T12:49:45.219Z,2.17
2022-11-25T12:52:33.997Z,3.25
2022-11-25T12:55:13.215Z,2.30
2022-11-25T12:58:21.637Z,4.53
2022-11-25T13:01:21.284Z,3.25
2022-11-25T13:04:14.744Z,3.00
2022-11-25T13:07:20.376Z,3.38
2022-11-25T13:10:25.617Z,3.45
2022-11-25T13:13:16.269Z,9.32
2022-11-25T13:15:53.121Z,7.10
2022-11-25T13:18:30.624Z,3.60
2022-11-25T13:21:07.584Z,3.97
2022-11-25T13:23:48.966Z,4.05
2022-11-25T13:26:51.106Z,9.82
2022-11-25T13:30:02.496Z,5.00
2022-11-25T13:32:41.457Z,4.90
2022-11-25T13:35:46.689Z,9.50
2022-11-25T13:38:56.730Z,6.53
2022-11-25T13:41:49.512Z,3.45
2022-11-25T13:44:27.400Z,2.65
2022-11-25T13:47:15.191Z,3.67
2022-11-25T13:49:52.261Z,5.90
2022-11-25T13:52:37.804Z,3.55
2022-11-25T13:55:24.786Z,3.40
2022-11-25T13:58:14.955Z,5.22
2022-11-25T14:01:01.646Z,3.28
2022-11-25T14:03:49.677Z,4.88
2022-11-25T14:06:50.631Z,3.30
2022-11-25T14:09:37.696Z,2.65
2022-11-25T14:12:23.837Z,3.45
2022-11-25T14:15:29.307Z,4.75
2022-11-25T14:19:00.423Z,4.07
2022-11-25T14:21:48.206Z,6.55
2022-11-25T14:24:29.633Z,3.33
2022-11-25T14:27:03.152Z,5.90
2022-11-25T14:29:41.609Z,3.08
2022-11-25T14:32:18.261Z,4.22
2022-11-25T14:34:56.710Z,4.40
2022-11-25T14:37:36.648Z,2.67
2022-11-25T14:40:15.418Z,5.88
2022-11-25T14:42:52.346Z,3.80
2022-11-25T14:45:28.497Z,8.50
2022-11-25T14:48:13.780Z,3.95
2022-11-25T14:50:56.231Z,4.13
2022-11-25T14:53:30.053Z,6.80
2022-11-25T14:56:04.375Z,3.47
2022-11-25T14:58:40.990Z,4.93
2022-11-25T15:01:19.468Z,4.20
2022-11-25T15:04:02.064Z,3.38
2022-11-25T15:06:36.639Z,7.07
2022-11-25T15:09:19.970Z,15.93
2022-11-25T15:11:56.304Z,13.90
2022-11-25T15:14:31.636Z,7.65
2022-11-25T15:17:07.566Z,8.10
2022-11-25T15:19:40.910Z,4.47
2022-11-25T15:22:25.003Z,8.82
2022-11-25T15:25:08.481Z,5.65
2022-11-25T15:27:44.614Z,4.43
2022-11-25T15:30:22.419Z,5.85
2022-11-25T15:32:56.350Z,4.60
2022-11-25T15:35:29.586Z,9.82
2022-11-25T15:38:17.141Z,5.28
2022-11-25T15:40:55.327Z,6.60
2022-11-25T15:43:30.306Z,4.60
2022-11-25T15:46:05.363Z,5.55
2022-11-25T15:48:41.228Z,10.65
2022-11-25T15:51:24.225Z,13.90
2022-11-25T15:54:01.600Z,3.03
2022-11-25T15:56:38.424Z,6.35
2022-11-25T15:59:55.515Z,8.15
2022-11-25T16:02:39.562Z,8.90
2022-11-25T16:05:17.475Z,9.95
2022-11-25T16:08:15.522Z,5.45
2022-11-25T16:10:53.633Z,3.50
2022-11-25T16:13:32.591Z,5.03
2022-11-25T16:16:13.112Z,8.20
2022-11-25T16:19:05.399Z,5.47
2022-11-25T16:21:58.515Z,7.93
2022-11-25T16:24:38.996Z,7.82
2022-11-25T16:27:17.824Z,14.75
2022-11-25T16:29:53.278Z,14.77
2022-11-25T16:32:28.231Z,13.98
2022-11-25T16:35:11.712Z,9.65
2022-11-25T16:37:48.842Z,4.15
2022-11-25T16:40:22.654Z,6.35
2022-11-25T16:42:55.442Z,22.58
2022-11-25T16:45:28.494Z,23.52
2022-11-25T16:48:00.972Z,14.95
2022-11-25T16:50:33.297Z,21.45
2022-11-25T16:53:05.632Z,11.13
2022-11-25T16:55:41.369Z,10.45
2022-11-25T16:58:18.553Z,11.23
2022-11-25T17:00:53.746Z,16.13
2022-11-25T17:03:26.092Z,19.58
2022-11-25T17:05:59.269Z,30.50
2022-11-25T17:08:31.801Z,22.58
2022-11-25T17:11:05.278Z,18.52
2022-11-25T17:13:41.507Z,14.32
2022-11-25T17:16:17.734Z,9.38
2022-11-25T17:18:52.461Z,13.20
2022-11-25T17:21:27.272Z,7.60
2022-11-25T17:24:02.013Z,6.40
2022-11-25T17:26:37.189Z,12.30
2022-11-25T17:29:14.260Z,17.35
2022-11-25T17:31:47.006Z,15.85
2022-11-25T17:34:19.396Z,14.57
2022-11-25T17:36:51.779Z,38.85
2022-11-25T17:39:24.272Z,31.52
2022-11-25T17:41:57.370Z,16.13
2022-11-25T17:44:29.931Z,29.23
2022-11-25T17:47:02.266Z,21.05
2022-11-25T17:49:34.590Z,19.30
2022-11-25T17:52:07.574Z,21.02
2022-11-25T17:54:40.327Z,28.70
2022-11-25T17:57:18.920Z,18.65
2022-11-25T17:59:51.282Z,23.83
2022-11-25T18:02:23.878Z,21.98
2022-11-25T18:04:56.266Z,15.25
2022-11-25T18:07:28.666Z,9.50
2022-11-25T18:10:01.091Z,30.52
2022-11-25T18:12:35.853Z,24.25
2022-11-25T18:15:15.456Z,28.00
2022-11-25T18:17:48.997Z,21.33
2022-11-25T18:20:23.817Z,26.60
2022-11-25T18:22:56.262Z,22.17
2022-11-25T18:25:31.012Z,15.73
2022-11-25T18:28:04.929Z,13.27
2022-11-25T18:30:38.152Z,26.98
2022-11-25T18:33:12.902Z,11.55
2022-11-25T18:35:46.109Z,15.38
2022-11-25T18:38:18.509Z,12.88
2022-11-25T18:40:53.751Z,17.90
2022-11-25T18:43:27.583Z,22.73
2022-11-25T18:46:00.426Z,27.48
2022-11-25T18:48:33.163Z,23.60
2022-11-25T18:51:05.661Z,26.00
2022-11-25T18:53:37.987Z,19.70
2022-11-25T18:56:17.501Z,16.50
2022-11-25T18:58:51.412Z,14.95
2022-11-25T19:01:23.934Z,19.17
2022-11-25T19:03:57.056Z,23.08
2022-11-25T19:06:29.568Z,15.50
2022-11-25T19:09:03.251Z,9.63
2022-11-25T19:11:38.919Z,9.93
2022-11-25T19:14:15.429Z,11.65
2022-11-25T19:16:47.948Z,10.00
2022-11-25T19:19:20.311Z,12.32
2022-11-25T19:21:52.685Z,6.30
2022-11-25T19:24:25.099Z,6.88
2022-11-25T19:26:57.540Z,11.50
2022-11-25T19:29:38.752Z,35.03
2022-11-25T19:32:18.979Z,41.00
2022-11-25T19:34:54.820Z,49.78
2022-11-25T19:37:29.512Z,22.77
2022-11-25T19:40:04.031Z,18.45
2022-11-25T19:42:36.404Z,21.38
2022-11-25T19:45:12.468Z,14.25
2022-11-25T19:47:46.771Z,11.95
2022-11-25T19:50:22.216Z,16.75
2022-11-25T19:52:54.805Z,11.35
2022-11-25T19:55:29.236Z,25.50
2022-11-25T19:58:01.602Z,21.42
2022-11-25T20:00:34.719Z,22.65
2022-11-25T20:03:16.130Z,21.98
2022-11-25T20:05:49.436Z,19.05
2022-11-25T20:08:24.155Z,21.92
2022-11-25T20:10:57.203Z,16.08
2022-11-25T20:13:29.579Z,12.65
2022-11-25T20:16:03.402Z,10.70
2022-11-25T20:18:37.172Z,7.97
2022-11-25T20:21:17.605Z,15.88
2022-11-25T20:23:50.746Z,10.20
2022-11-25T20:26:29.405Z,13.55
2022-11-25T20:29:01.922Z,9.88
2022-11-25T20:31:35.040Z,11.15
2022-11-25T20:34:07.459Z,9.05
2022-11-25T20:36:41.950Z,14.63
2022-11-25T20:39:17.732Z,12.90
2022-11-25T20:41:52.230Z,15.25
2022-11-25T20:44:24.654Z,24.80
2022-11-25T20:46:57.692Z,18.48
2022-11-25T20:49:30.227Z,20.35
2022-11-25T20:52:02.697Z,24.88
2022-11-25T20:54:36.193Z,28.88
2022-11-25T20:57:10.396Z,57.92
2022-11-25T20:59:43.915Z,31.80
2022-11-25T21:02:17.252Z,23.15
2022-11-25T21:04:49.656Z,28.20
2022-11-25T21:07:22.046Z,30.13
2022-11-25T21:09:54.524Z,36.55
2022-11-25T21:12:26.920Z,20.77
2022-11-25T21:14:59.240Z,30.05
2022-11-25T21:17:32.282Z,33.53
2022-11-25T21:20:05.606Z,25.02
2022-11-25T21:22:41.384Z,15.25
2022-11-25T21:25:17.125Z,24.75
2022-11-25T21:27:50.381Z,20.85
2022-11-25T21:30:24.800Z,22.45
2022-11-25T21:32:59.891Z,16.63
2022-11-25T21:35:34.466Z,18.38
2022-11-25T21:38:11.517Z,19.05
2022-11-25T21:40:46.245Z,19.35
2022-11-25T21:43:21.773Z,19.15
2022-11-25T21:45:59.927Z,24.08
2022-11-25T21:48:33.852Z,29.70
2022-11-25T21:51:06.254Z,15.80
2022-11-25T21:53:38.719Z,25.00
2022-11-25T21:56:17.701Z,23.75
2022-11-25T21:58:50.215Z,20.13
2022-11-25T22:01:23.649Z,29.98
2022-11-25T22:03:56.798Z,24.83
2022-11-25T22:06:30.128Z,22.25
2022-11-25T22:09:02.531Z,22.15
2022-11-25T22:11:38.219Z,22.65
2022-11-25T22:14:14.648Z,27.00
2022-11-25T22:16:47.181Z,22.80
2022-11-25T22:19:23.414Z,16.75
2022-11-25T22:21:55.975Z,11.52
2022-11-25T22:24:29.229Z,9.27
2022-11-25T22:27:02.770Z,10.63
2022-11-25T22:29:36.310Z,7.47
2022-11-25T22:32:12.915Z,9.30
2022-11-25T22:34:46.049Z,7.70
2022-11-25T22:37:20.468Z,8.40
2022-11-25T22:39:52.859Z,19.67
2022-11-25T22:42:28.131Z,18.58
2022-11-25T22:45:03.299Z,9.93
2022-11-25T22:47:40.536Z,8.73
2022-11-25T22:50:18.903Z,15.00
2022-11-25T22:52:52.235Z,16.75
2022-11-25T22:55:26.303Z,10.00
2022-11-25T22:58:00.150Z,16.73
2022-11-25T23:00:36.567Z,15.77
2022-11-25T23:03:17.850Z,42.35
2022-11-25T23:05:52.403Z,25.58
2022-11-25T23:08:27.123Z,27.50
2022-11-25T23:10:59.928Z,15.30
2022-11-25T23:13:32.416Z,21.67
2022-11-25T23:16:05.562Z,37.78
2022-11-25T23:18:40.208Z,28.80
2022-11-25T23:21:17.248Z,15.88
2022-11-25T23:23:50.673Z,16.15
2022-11-25T23:26:23.266Z,20.38
2022-11-25T23:28:55.739Z,14.73
2022-11-25T23:31:28.183Z,11.30
2022-11-25T23:34:00.808Z,23.58
2022-11-25T23:36:41.746Z,17.20
2022-11-25T23:39:18.821Z,17.45
2022-11-25T23:41:51.251Z,11.38
2022-11-25T23:44:26.179Z,13.38
2022-11-25T23:47:00.893Z,13.45
2022-11-25T23:49:36.163Z,15.73
2022-11-25T23:52:14.342Z,11.45
2022-11-25T23:54:49.431Z,9.35
2022-11-25T23:57:24.658Z,5.60
2022-11-25T23:59:57.099Z,5.72
